createdAt,value
2023-04-11T00:00:29.048Z,1.97
2023-04-11T00:03:00.141Z,3.40
2023-04-11T00:05:27.832Z,1.93
2023-04-11T00:07:54.469Z,1.67
2023-04-11T00:10:21.040Z,3.17
2023-04-11T00:12:47.426Z,2.87
2023-04-11T00:15:16.204Z,1.57
2023-04-11T00:17:45.739Z,5.63
2023-04-11T00:20:12.934Z,3.30
2023-04-11T00:22:39.540Z,2.30
2023-04-11T00:25:07.022Z,2.40
2023-04-11T00:27:33.480Z,2.90
2023-04-11T00:30:00.165Z,3.63
2023-04-11T00:32:26.798Z,3.47
2023-04-11T00:34:53.233Z,3.80
2023-04-11T00:37:21.517Z,4.60
2023-04-11T00:39:50.470Z,2.87
2023-04-11T00:42:17.206Z,5.80
2023-04-11T00:44:43.753Z,2.93
2023-04-11T00:47:10.342Z,2.90
2023-04-11T00:49:37.183Z,2.77
2023-04-11T00:52:05.250Z,1.97
2023-04-11T00:54:32.534Z,2.30
2023-04-11T00:57:01.919Z,2.37
2023-04-11T00:59:30.552Z,7.43
2023-04-11T01:01:58.297Z,4.73
2023-04-11T01:04:26.151Z,2.27
2023-04-11T01:07:06.161Z,3.77
2023-04-11T01:09:34.733Z,6.47
2023-04-11T01:12:03.061Z,4.83
2023-04-11T01:14:29.950Z,5.60
2023-04-11T01:16:57.254Z,6.87
2023-04-11T01:19:26.527Z,5.07
2023-04-11T01:21:54.481Z,4.97
2023-04-11T01:24:20.914Z,10.23
2023-04-11T01:26:47.376Z,7.73
2023-04-11T01:29:13.791Z,5.07
2023-04-11T01:31:40.301Z,5.43
2023-04-11T01:34:07.336Z,5.53
2023-04-11T01:36:33.961Z,5.03
2023-04-11T01:39:00.449Z,7.60
2023-04-11T01:41:29.405Z,6.43
2023-04-11T01:43:56.515Z,9.30
2023-04-11T01:46:23.501Z,8.33
2023-04-11T01:48:50.552Z,10.63
2023-04-11T01:51:17.217Z,10.93
2023-04-11T01:53:45.955Z,8.17
2023-04-11T01:56:12.745Z,10.20
2023-04-11T01:58:39.339Z,6.47
2023-04-11T02:01:06.046Z,12.83
2023-04-11T02:03:32.633Z,11.20
2023-04-11T02:05:59.404Z,5.60
2023-04-11T02:08:25.870Z,8.63
2023-04-11T02:10:52.175Z,8.17
2023-04-11T02:13:19.094Z,8.80
2023-04-11T02:15:45.535Z,13.00
2023-04-11T02:18:12.065Z,9.20
2023-04-11T02:20:40.480Z,9.27
2023-04-11T02:23:07.379Z,10.33
2023-04-11T02:25:33.964Z,18.67
2023-04-11T02:28:00.985Z,14.07
2023-04-11T02:30:27.408Z,10.33
2023-04-11T02:32:53.845Z,15.37
2023-04-11T02:35:20.406Z,14.63
2023-04-11T02:37:46.760Z,11.23
2023-04-11T02:40:13.117Z,10.97
2023-04-11T02:42:43.119Z,13.33
2023-04-11T02:45:10.291Z,7.83
2023-04-11T02:47:36.741Z,14.33
2023-04-11T02:50:03.341Z,11.17
2023-04-11T02:52:29.648Z,15.97
2023-04-11T02:54:56.063Z,13.10
2023-04-11T02:57:22.486Z,18.67
2023-04-11T02:59:48.806Z,13.67
2023-04-11T03:02:15.173Z,12.77
2023-04-11T03:04:41.695Z,10.33
2023-04-11T03:07:08.022Z,14.87
2023-04-11T03:09:34.381Z,10.23
2023-04-11T03:12:01.419Z,15.07
2023-04-11T03:14:27.850Z,18.13
2023-04-11T03:16:54.206Z,15.77
2023-04-11T03:19:21.081Z,20.93
2023-04-11T03:21:47.470Z,19.87
2023-04-11T03:24:13.801Z,14.60
2023-04-11T03:26:40.231Z,15.27
2023-04-11T03:29:06.582Z,19.63
2023-04-11T03:31:33.000Z,14.13
2023-04-11T03:33:59.490Z,17.87
2023-04-11T03:36:29.472Z,12.53
2023-04-11T03:38:56.105Z,18.57
2023-04-11T03:41:22.864Z,26.37
2023-04-11T03:43:49.185Z,17.57
2023-04-11T03:46:15.608Z,15.77
2023-04-11T03:48:42.010Z,16.37
2023-04-11T03:51:08.570Z,11.03
2023-04-11T03:53:34.977Z,12.97
2023-04-11T03:56:01.562Z,19.23
2023-04-11T03:58:27.950Z,25.10
2023-04-11T04:00:54.328Z,14.37
2023-04-11T04:03:21.068Z,21.47
2023-04-11T04:05:47.647Z,14.10
2023-04-11T04:08:14.083Z,14.60
2023-04-11T04:10:40.669Z,12.03
2023-04-11T04:13:07.061Z,15.10
2023-04-11T04:15:33.818Z,13.13
2023-04-11T04:18:00.399Z,16.37
2023-04-11T04:20:26.846Z,14.10
2023-04-11T04:22:53.953Z,10.10
2023-04-11T04:25:20.531Z,14.70
2023-04-11T04:27:47.510Z,12.93
2023-04-11T04:30:15.620Z,18.37
2023-04-11T04:32:44.110Z,14.10
2023-04-11T04:35:14.032Z,14.10
2023-04-11T04:37:45.486Z,14.10
2023-04-11T04:40:13.879Z,15.17
2023-04-11T04:42:44.322Z,11.07
2023-04-11T04:45:13.803Z,13.67
2023-04-11T04:47:40.326Z,13.33
2023-04-11T04:50:07.722Z,20.07
2023-04-11T04:52:34.382Z,14.70
2023-04-11T04:55:01.531Z,15.57
2023-04-11T04:57:29.587Z,13.77
2023-04-11T04:59:57.063Z,17.70
2023-04-11T05:02:25.420Z,15.67
2023-04-11T05:04:54.042Z,13.63
2023-04-11T05:07:20.874Z,12.33
2023-04-11T05:09:47.635Z,14.93
2023-04-11T05:12:15.901Z,13.73
2023-04-11T05:14:42.471Z,14.03
2023-04-11T05:17:08.961Z,16.90
2023-04-11T05:19:35.401Z,19.53
2023-04-11T05:22:01.864Z,9.97
2023-04-11T05:24:28.243Z,23.73
2023-04-11T05:26:54.596Z,19.77
2023-04-11T05:29:21.325Z,13.27
2023-04-11T05:31:47.652Z,14.57
2023-04-11T05:34:14.020Z,15.03
2023-04-11T05:36:42.045Z,11.03
2023-04-11T05:39:08.451Z,11.77
2023-04-11T05:41:34.831Z,14.40
2023-04-11T05:44:01.763Z,17.77
2023-04-11T05:46:29.405Z,13.00
2023-04-11T05:48:57.891Z,9.80
2023-04-11T05:51:24.521Z,13.87
2023-04-11T05:53:50.879Z,13.13
2023-04-11T05:56:17.317Z,11.73
2023-04-11T05:58:44.264Z,12.03
2023-04-11T06:01:18.107Z,14.97
2023-04-11T06:03:48.285Z,8.23
2023-04-11T06:06:14.996Z,13.83
2023-04-11T06:08:41.567Z,12.47
2023-04-11T06:11:08.144Z,12.30
2023-04-11T06:13:34.476Z,13.00
2023-04-11T06:16:01.348Z,20.00
2023-04-11T06:18:27.858Z,11.90
2023-04-11T06:20:54.206Z,15.10
2023-04-11T06:23:20.563Z,11.17
2023-04-11T06:25:46.979Z,14.50
2023-04-11T06:28:14.036Z,14.30
2023-04-11T06:30:40.603Z,14.90
2023-04-11T06:33:06.942Z,12.63
2023-04-11T06:35:33.377Z,9.47
2023-04-11T06:38:00.148Z,16.10
2023-04-11T06:40:26.565Z,13.20
2023-04-11T06:42:52.905Z,14.67
2023-04-11T06:45:19.457Z,12.37
2023-04-11T06:47:45.838Z,13.07
2023-04-11T06:50:12.264Z,9.33
2023-04-11T06:52:38.627Z,13.27
2023-04-11T06:55:07.123Z,9.40
2023-04-11T06:57:33.933Z,12.93
2023-04-11T07:00:00.401Z,17.83
2023-04-11T07:02:27.028Z,11.53
2023-04-11T07:04:56.924Z,14.83
2023-04-11T07:07:23.486Z,10.83
2023-04-11T07:09:49.878Z,11.37
2023-04-11T07:12:16.271Z,14.93
2023-04-11T07:14:42.748Z,12.97
2023-04-11T07:17:09.330Z,7.23
2023-04-11T07:19:35.645Z,17.43
2023-04-11T07:22:02.201Z,9.53
2023-04-11T07:24:30.398Z,13.23
2023-04-11T07:26:58.739Z,10.97
2023-04-11T07:29:25.524Z,9.37
2023-04-11T07:31:53.220Z,10.80
2023-04-11T07:34:19.763Z,9.73
2023-04-11T07:36:46.165Z,12.60
2023-04-11T07:39:15.194Z,16.10
2023-04-11T07:41:41.739Z,12.57
2023-04-11T07:44:09.457Z,11.67
2023-04-11T07:46:35.880Z,13.27
2023-04-11T07:49:02.535Z,10.60
2023-04-11T07:51:28.893Z,10.20
2023-04-11T07:53:55.409Z,8.30
2023-04-11T07:56:22.259Z,11.23
2023-04-11T07:58:48.599Z,11.30
2023-04-11T08:01:23.035Z,9.63
2023-04-11T08:03:49.772Z,11.97
2023-04-11T08:06:16.275Z,12.07
2023-04-11T08:08:42.773Z,13.43
2023-04-11T08:11:09.161Z,13.00
2023-04-11T08:13:35.882Z,12.10
2023-04-11T08:16:15.023Z,13.63
2023-04-11T08:18:42.542Z,8.20
2023-04-11T08:21:11.482Z,11.03
2023-04-11T08:23:39.912Z,12.97
2023-04-11T08:26:07.821Z,15.50
2023-04-11T08:28:34.432Z,9.23
2023-04-11T08:31:03.921Z,12.53
2023-04-11T08:33:30.460Z,9.80
2023-04-11T08:35:58.015Z,9.37
2023-04-11T08:38:24.471Z,11.17
2023-04-11T08:40:51.396Z,7.47
2023-04-11T08:43:18.304Z,12.60
2023-04-11T08:45:44.903Z,6.03
2023-04-11T08:48:12.455Z,9.93
2023-04-11T08:50:43.971Z,9.90
2023-04-11T08:53:10.672Z,7.70
2023-04-11T08:55:46.093Z,8.27
2023-04-11T08:58:12.947Z,5.17
2023-04-11T09:00:39.761Z,6.23
2023-04-11T09:03:08.068Z,6.70
2023-04-11T09:05:43.634Z,4.30
2023-04-11T09:08:12.322Z,6.70
2023-04-11T09:10:40.885Z,9.63
2023-04-11T09:13:21.498Z,8.07
2023-04-11T09:15:48.758Z,5.55
2023-04-11T09:18:35.350Z,9.83
2023-04-11T09:21:04.624Z,7.00
2023-04-11T09:23:31.082Z,10.17
2023-04-11T09:25:57.971Z,8.37
2023-04-11T09:28:24.616Z,8.47
2023-04-11T09:30:52.622Z,6.03
2023-04-11T09:33:29.543Z,6.80
2023-04-11T09:35:56.745Z,8.80
2023-04-11T09:38:35.105Z,4.77
2023-04-11T09:41:03.001Z,7.13
2023-04-11T09:43:50.570Z,6.70
2023-04-11T09:46:20.546Z,7.13
2023-04-11T09:48:51.922Z,8.13
2023-04-11T09:51:34.143Z,6.83
2023-04-11T09:54:03.486Z,9.27
2023-04-11T09:56:31.278Z,5.93
2023-04-11T09:59:00.718Z,9.30
2023-04-11T10:01:27.532Z,6.53
2023-04-11T10:03:56.456Z,7.93
2023-04-11T10:06:53.710Z,7.40
2023-04-11T10:09:21.240Z,4.57
2023-04-11T10:11:47.686Z,8.37
2023-04-11T10:14:42.510Z,10.30
2023-04-11T10:17:21.289Z,4.87
2023-04-11T10:19:49.573Z,11.53
2023-04-11T10:22:41.643Z,8.20
2023-04-11T10:25:21.809Z,6.50
2023-04-11T10:27:50.351Z,12.33
2023-04-11T10:30:16.871Z,6.27
2023-04-11T10:33:11.644Z,3.80
2023-04-11T10:36:01.886Z,7.10
2023-04-11T10:38:43.646Z,5.80
2023-04-11T10:41:23.195Z,7.27
2023-04-11T10:43:50.138Z,6.30
2023-04-11T10:46:24.805Z,6.30
2023-04-11T10:49:01.483Z,3.17
2023-04-11T10:51:29.961Z,4.47
2023-04-11T10:53:59.349Z,5.50
2023-04-11T10:56:45.472Z,5.13
2023-04-11T10:59:34.335Z,6.50
2023-04-11T11:02:02.790Z,6.20
2023-04-11T11:04:37.702Z,6.00
2023-04-11T11:07:06.616Z,3.97
2023-04-11T11:09:34.100Z,6.40
2023-04-11T11:12:14.873Z,7.07
2023-04-11T11:14:43.394Z,4.97
2023-04-11T11:17:12.410Z,9.80
2023-04-11T11:19:44.983Z,3.43
2023-04-11T11:22:18.478Z,7.00
2023-04-11T11:24:45.362Z,9.90
2023-04-11T11:27:25.042Z,5.23
2023-04-11T11:29:53.100Z,4.97
2023-04-11T11:32:26.337Z,10.13
2023-04-11T11:34:53.465Z,5.83
2023-04-11T11:37:21.330Z,3.30
2023-04-11T11:39:49.077Z,5.17
2023-04-11T11:42:16.234Z,5.90
2023-04-11T11:44:42.761Z,6.23
2023-04-11T11:47:12.656Z,4.33
2023-04-11T11:49:55.592Z,8.50
2023-04-11T11:52:43.269Z,4.07
2023-04-11T11:55:19.120Z,5.27
2023-04-11T11:57:47.638Z,5.33
2023-04-11T12:00:14.925Z,8.13
2023-04-11T12:02:45.108Z,5.10
2023-04-11T12:05:12.584Z,8.17
2023-04-11T12:07:39.796Z,5.30
2023-04-11T12:10:14.598Z,6.13
2023-04-11T12:12:43.058Z,3.43
2023-04-11T12:15:17.167Z,3.87
2023-04-11T12:17:48.045Z,3.23
2023-04-11T12:20:15.880Z,7.10
2023-04-11T12:22:42.349Z,6.20
2023-04-11T12:25:10.684Z,6.03
2023-04-11T12:27:38.775Z,9.17
2023-04-11T12:30:06.061Z,4.13
2023-04-11T12:32:33.957Z,3.53
2023-04-11T12:35:02.072Z,5.33
2023-04-11T12:37:28.813Z,6.30
2023-04-11T12:39:55.409Z,3.00
2023-04-11T12:42:26.633Z,5.17
2023-04-11T12:44:53.873Z,5.80
2023-04-11T12:47:20.270Z,6.30
2023-04-11T12:49:46.777Z,4.00
2023-04-11T12:52:13.099Z,3.73
2023-04-11T12:54:41.961Z,4.30
2023-04-11T12:57:08.527Z,4.00
2023-04-11T12:59:35.039Z,4.00
2023-04-11T13:02:01.838Z,5.17
2023-04-11T13:04:28.710Z,4.37
2023-04-11T13:07:00.906Z,4.47
2023-04-11T13:09:34.467Z,3.53
2023-04-11T13:12:03.612Z,5.13
2023-04-11T13:14:30.706Z,6.07
2023-04-11T13:16:57.037Z,6.30
2023-04-11T13:19:23.702Z,5.07
2023-04-11T13:21:50.193Z,7.60
2023-04-11T13:24:16.718Z,7.53
2023-04-11T13:26:44.884Z,7.10
2023-04-11T13:29:12.195Z,7.80
2023-04-11T13:31:38.654Z,6.53
2023-04-11T13:34:05.116Z,3.97
2023-04-11T13:36:32.377Z,4.07
2023-04-11T13:38:59.001Z,3.97
2023-04-11T13:41:25.637Z,6.93
2023-04-11T13:43:53.358Z,8.87
2023-04-11T13:46:21.711Z,3.90
2023-04-11T13:48:48.263Z,5.07
2023-04-11T13:51:14.702Z,6.77
2023-04-11T13:53:41.145Z,8.37
2023-04-11T13:56:08.071Z,5.67
2023-04-11T13:58:35.271Z,4.80
2023-04-11T14:01:01.855Z,4.87
2023-04-11T14:03:32.941Z,9.30
2023-04-11T14:06:00.543Z,7.17
2023-04-11T14:08:30.833Z,3.53
2023-04-11T14:10:57.172Z,9.00
2023-04-11T14:13:24.728Z,6.53
2023-04-11T14:16:04.915Z,5.53
2023-04-11T14:18:34.171Z,4.00
2023-04-11T14:21:01.785Z,8.40
2023-04-11T14:23:29.053Z,4.37
2023-04-11T14:25:55.435Z,5.17
2023-04-11T14:28:21.931Z,6.20
2023-04-11T14:30:48.395Z,7.50
2023-04-11T14:33:14.999Z,5.13
2023-04-11T14:35:42.677Z,5.10
2023-04-11T14:38:09.152Z,5.97
2023-04-11T14:40:35.811Z,4.63
2023-04-11T14:43:02.226Z,7.05
2023-04-11T14:45:28.585Z,3.67
2023-04-11T14:47:55.115Z,5.10
2023-04-11T14:50:21.456Z,4.83
2023-04-11T14:52:48.299Z,4.57
2023-04-11T14:55:14.816Z,5.20
2023-04-11T14:57:46.415Z,4.85
2023-04-11T15:00:19.134Z,4.35
2023-04-11T15:02:47.534Z,4.50
2023-04-11T15:05:16.672Z,4.67
2023-04-11T15:07:43.325Z,3.93
2023-04-11T15:10:10.211Z,7.70
2023-04-11T15:12:36.578Z,5.60
2023-04-11T15:15:04.569Z,3.43
2023-04-11T15:17:30.953Z,6.47
2023-04-11T15:19:57.258Z,7.43
2023-04-11T15:22:23.666Z,5.73
2023-04-11T15:24:50.752Z,5.47
2023-04-11T15:27:17.156Z,6.33
2023-04-11T15:29:43.760Z,5.73
2023-04-11T15:32:10.138Z,6.53
2023-04-11T15:34:37.072Z,6.40
2023-04-11T15:37:03.498Z,3.47
2023-04-11T15:39:29.820Z,5.30
2023-04-11T15:41:56.320Z,2.87
2023-04-11T15:44:22.725Z,4.30
2023-04-11T15:46:49.530Z,3.20
2023-04-11T15:49:15.957Z,3.63
2023-04-11T15:51:44.900Z,3.13
2023-04-11T15:54:11.393Z,3.40
2023-04-11T15:56:37.757Z,3.40
2023-04-11T15:59:04.211Z,4.00
2023-04-11T16:01:30.905Z,7.60
2023-04-11T16:03:57.882Z,5.17
2023-04-11T16:06:24.642Z,3.70
2023-04-11T16:08:51.644Z,3.37
2023-04-11T16:11:18.011Z,3.07
2023-04-11T16:13:44.459Z,5.17
2023-04-11T16:16:11.317Z,3.13
2023-04-11T16:18:37.802Z,5.00
2023-04-11T16:21:04.501Z,3.50
2023-04-11T16:23:30.913Z,4.37
2023-04-11T16:25:57.310Z,4.70
2023-04-11T16:28:24.038Z,7.03
2023-04-11T16:30:50.410Z,4.37
2023-04-11T16:33:17.380Z,4.17
2023-04-11T16:35:43.778Z,4.87
2023-04-11T16:38:10.280Z,5.83
2023-04-11T16:40:37.128Z,3.77
2023-04-11T16:43:03.703Z,6.50
2023-04-11T16:45:30.280Z,4.23
2023-04-11T16:47:56.777Z,3.87
2023-04-11T16:50:23.507Z,4.50
2023-04-11T16:52:49.898Z,5.30
2023-04-11T16:55:16.716Z,5.17
2023-04-11T16:57:43.256Z,6.33
2023-04-11T17:00:13.261Z,4.10
2023-04-11T17:02:39.759Z,5.43
2023-04-11T17:05:06.942Z,3.60
2023-04-11T17:07:33.401Z,4.70
2023-04-11T17:10:00.044Z,4.47
2023-04-11T17:12:27.100Z,4.70
2023-04-11T17:14:55.187Z,4.20
2023-04-11T17:17:22.830Z,4.33
2023-04-11T17:19:49.498Z,12.67
2023-04-11T17:22:16.187Z,6.57
2023-04-11T17:24:42.568Z,4.87
2023-04-11T17:27:09.002Z,9.37
2023-04-11T17:29:35.395Z,6.70
2023-04-11T17:32:02.383Z,3.10
2023-04-11T17:34:28.817Z,6.73
2023-04-11T17:36:56.677Z,4.10
2023-04-11T17:39:23.189Z,4.97
2023-04-11T17:41:49.607Z,5.07
2023-04-11T17:44:16.159Z,5.47
2023-04-11T17:46:42.565Z,4.03
2023-04-11T17:49:08.984Z,3.50
2023-04-11T17:51:38.963Z,5.77
2023-04-11T17:54:09.445Z,3.70
2023-04-11T17:56:35.999Z,7.80
2023-04-11T17:59:02.386Z,9.17
2023-04-11T18:01:32.362Z,5.50
2023-04-11T18:04:00.534Z,3.73
2023-04-11T18:06:34.032Z,5.50
2023-04-11T18:09:01.821Z,6.33
2023-04-11T18:11:28.176Z,5.30
2023-04-11T18:13:55.203Z,6.37
2023-04-11T18:16:21.995Z,7.53
2023-04-11T18:18:48.490Z,7.50
2023-04-11T18:21:16.413Z,7.87
2023-04-11T18:23:42.771Z,5.30
2023-04-11T18:26:09.112Z,6.57
2023-04-11T18:28:35.547Z,6.43
2023-04-11T18:31:02.021Z,6.07
2023-04-11T18:33:28.538Z,5.60
2023-04-11T18:35:55.033Z,6.90
2023-04-11T18:38:22.256Z,4.27
2023-04-11T18:40:48.936Z,6.23
2023-04-11T18:43:15.483Z,6.53
2023-04-11T18:45:43.294Z,4.77
2023-04-11T18:48:10.842Z,7.43
2023-04-11T18:50:38.936Z,5.30
2023-04-11T18:53:09.478Z,5.77
2023-04-11T18:55:37.817Z,8.80
2023-04-11T18:58:06.984Z,6.40
2023-04-11T19:00:35.550Z,4.53
2023-04-11T19:03:02.173Z,5.00
2023-04-11T19:05:29.404Z,5.80
2023-04-11T19:07:56.105Z,3.77
2023-04-11T19:10:22.596Z,6.60
2023-04-11T19:12:49.004Z,6.73
2023-04-11T19:15:15.654Z,8.43
2023-04-11T19:17:42.041Z,3.70
2023-04-11T19:20:16.502Z,3.73
2023-04-11T19:22:43.170Z,3.87
2023-04-11T19:25:11.099Z,4.97
2023-04-11T19:27:40.301Z,3.70
2023-04-11T19:30:08.673Z,5.33
2023-04-11T19:32:38.450Z,5.10
2023-04-11T19:35:05.780Z,7.37
2023-04-11T19:37:33.506Z,9.33
2023-04-11T19:39:59.918Z,3.90
2023-04-11T19:42:27.619Z,8.10
2023-04-11T19:44:53.948Z,6.67
2023-04-11T19:47:20.378Z,4.93
2023-04-11T19:49:46.731Z,3.33
2023-04-11T19:52:13.059Z,6.40
2023-04-11T19:54:39.532Z,4.47
2023-04-11T19:57:06.278Z,6.43
2023-04-11T19:59:32.699Z,5.13
2023-04-11T20:02:01.425Z,6.57
2023-04-11T20:04:27.978Z,3.33
2023-04-11T20:06:56.574Z,7.43
2023-04-11T20:09:23.047Z,6.27
2023-04-11T20:11:50.865Z,7.33
2023-04-11T20:14:17.246Z,3.77
2023-04-11T20:16:43.652Z,5.93
2023-04-11T20:19:10.218Z,7.13
2023-04-11T20:21:36.898Z,5.13
2023-04-11T20:24:03.594Z,9.00
2023-04-11T20:26:29.963Z,6.10
2023-04-11T20:28:58.164Z,5.47
2023-04-11T20:31:25.461Z,6.20
2023-04-11T20:33:51.987Z,6.07
2023-04-11T20:36:18.505Z,3.60
2023-04-11T20:38:45.048Z,5.10
2023-04-11T20:41:12.103Z,6.20
2023-04-11T20:43:41.855Z,3.57
2023-04-11T20:46:08.631Z,5.70
2023-04-11T20:48:35.393Z,4.87
2023-04-11T20:51:02.044Z,6.07
2023-04-11T20:53:28.569Z,5.93
2023-04-11T20:55:55.067Z,7.03
2023-04-11T20:58:21.479Z,6.80
2023-04-11T21:00:47.828Z,4.77
2023-04-11T21:03:14.536Z,7.80
2023-04-11T21:05:44.273Z,5.30
2023-04-11T21:08:14.911Z,5.30
2023-04-11T21:10:41.360Z,4.07
2023-04-11T21:13:07.717Z,5.87
2023-04-11T21:15:34.852Z,3.73
2023-04-11T21:18:01.401Z,6.63
2023-04-11T21:20:27.854Z,6.63
2023-04-11T21:22:54.404Z,8.53
2023-04-11T21:25:21.745Z,7.17
2023-04-11T21:27:48.154Z,6.53
2023-04-11T21:30:14.934Z,6.03
2023-04-11T21:32:41.796Z,5.17
2023-04-11T21:35:10.406Z,5.00
2023-04-11T21:37:37.380Z,3.93
2023-04-11T21:40:04.256Z,4.70
2023-04-11T21:42:30.963Z,8.77
2023-04-11T21:44:57.441Z,4.87
2023-04-11T21:47:23.958Z,4.87
2023-04-11T21:49:50.379Z,7.63
2023-04-11T21:52:16.714Z,6.50
2023-04-11T21:54:43.781Z,6.43
2023-04-11T21:57:10.863Z,3.80
2023-04-11T21:59:38.403Z,4.67
2023-04-11T22:02:05.144Z,5.27
2023-04-11T22:04:35.736Z,6.23
2023-04-11T22:07:08.114Z,9.23
2023-04-11T22:09:38.026Z,4.83
2023-04-11T22:12:04.514Z,3.00
2023-04-11T22:14:30.906Z,4.87
2023-04-11T22:16:58.340Z,4.53
2023-04-11T22:19:24.854Z,2.73
2023-04-11T22:21:55.810Z,7.90
2023-04-11T22:24:30.117Z,4.80
2023-04-11T22:26:58.470Z,5.30
2023-04-11T22:29:30.236Z,7.80
2023-04-11T22:32:00.835Z,5.33
2023-04-11T22:34:27.289Z,4.73
2023-04-11T22:36:53.753Z,4.50
2023-04-11T22:39:21.622Z,5.93
2023-04-11T22:41:52.085Z,7.50
2023-04-11T22:44:19.034Z,9.50
2023-04-11T22:47:00.636Z,4.23
2023-04-11T22:49:27.231Z,6.07
2023-04-11T22:51:59.064Z,4.70
2023-04-11T22:54:27.258Z,8.23
2023-04-11T22:56:56.513Z,6.53
2023-04-11T22:59:24.708Z,5.00
2023-04-11T23:01:51.839Z,7.70
2023-04-11T23:04:22.174Z,5.57
2023-04-11T23:06:50.030Z,6.53
2023-04-11T23:09:20.307Z,5.13
2023-04-11T23:11:47.948Z,5.60
2023-04-11T23:14:15.355Z,6.20
2023-04-11T23:16:43.452Z,5.60
2023-04-11T23:19:10.163Z,3.03
2023-04-11T23:21:37.715Z,6.83
2023-04-11T23:24:07.072Z,4.93
2023-04-11T23:26:33.751Z,4.87
2023-04-11T23:29:02.139Z,5.90
2023-04-11T23:31:28.868Z,5.90
2023-04-11T23:33:55.651Z,12.57
2023-04-11T23:36:22.636Z,4.77
2023-04-11T23:38:49.042Z,4.53
2023-04-11T23:41:15.429Z,7.40
2023-04-11T23:43:41.903Z,4.80
2023-04-11T23:46:08.412Z,4.30
2023-04-11T23:48:34.768Z,5.10
2023-04-11T23:51:01.315Z,6.27
2023-04-11T23:53:27.777Z,5.30
2023-04-11T23:55:54.190Z,6.73
2023-04-11T23:58:20.759Z,2.63
